Time;durP1;ratioP1;P1;durP2;ratioP2;P2;SDS_P1;SDS_P2;PMS_P1;PMS_P2;Temp;Humidity;BMP_temperature;BMP_pressure;BME280_temperature;BME280_humidity;BME280_pressure;Samples;Min_cycle;Max_cycle;Signal;HPM_P1;HPM_P2
2023/04/08 00:00:20;;;;;;;;;;;;;;;16.59;46.00;102156.00;7258671;19;153096;-55
2023/04/08 00:02:46;;;;;;;;;;;;;;;16.57;45.66;102150.66;7255312;19;153588;-55
2023/04/08 00:05:13;;;;;;;;;;;;;;;16.60;45.71;102158.53;7252717;19;154363;-55
2023/04/08 00:07:40;;;;;;;;;;;;;;;16.59;45.67;102153.19;7255533;19;154047;-55
2023/04/08 00:10:07;;;;;;;;;;;;;;;16.58;45.80;102155.13;7256225;19;153881;-56
2023/04/08 00:12:35;;;;;;;;;;;;;;;16.59;45.69;102154.06;7258191;19;153770;-55
2023/04/08 00:15:02;;;;;;;;;;;;;;;16.57;45.90;102153.44;7255635;19;152367;-55
2023/04/08 00:17:31;;;;;;;;;;;;;;;16.58;45.88;102157.94;7251048;19;153730;-55
2023/04/08 00:19:59;;;;;;;;;;;;;;;16.58;45.80;102165.47;7264995;19;153270;-55
2023/04/08 00:22:25;;;;;;;;;;;;;;;16.57;45.99;102159.03;7254890;19;154412;-55
2023/04/08 00:24:52;;;;;;;;;;;;;;;16.56;46.07;102162.06;7253554;19;152594;-55
2023/04/08 00:27:19;;;;;;;;;;;;;;;16.56;45.92;102160.13;7254548;19;152667;-55
2023/04/08 00:29:46;;;;;;;;;;;;;;;16.56;46.16;102162.91;7258615;19;154496;-55
2023/04/08 00:32:14;;;;;;;;;;;;;;;16.55;45.92;102155.63;7253954;19;153708;-55
2023/04/08 00:34:42;;;;;;;;;;;;;;;16.56;46.24;102156.47;7254064;19;153778;-55
2023/04/08 00:37:09;;;;;;;;;;;;;;;16.53;46.38;102157.00;7252282;19;152387;-55
2023/04/08 00:39:36;;;;;;;;;;;;;;;16.53;46.06;102154.19;7257053;19;153596;-55
2023/04/08 00:42:03;;;;;;;;;;;;;;;16.55;46.00;102164.00;7262778;19;152393;-55
2023/04/08 00:44:30;;;;;;;;;;;;;;;16.55;46.22;102157.56;7253157;19;153287;-55
2023/04/08 00:46:57;;;;;;;;;;;;;;;16.55;46.26;102160.34;7252368;19;154455;-55
2023/04/08 00:49:24;;;;;;;;;;;;;;;16.54;45.91;102159.50;7252681;19;153025;-55
2023/04/08 00:51:54;;;;;;;;;;;;;;;16.52;46.25;102164.50;7257336;19;153621;-55
2023/04/08 00:54:21;;;;;;;;;;;;;;;16.50;46.39;102163.91;7253198;19;154170;-56
2023/04/08 00:56:48;;;;;;;;;;;;;;;16.50;46.02;102169.47;7250184;19;154202;-56
2023/04/08 00:59:16;;;;;;;;;;;;;;;16.53;46.01;102168.16;7256193;19;153768;-56
2023/04/08 01:01:47;;;;;;;;;;;;;;;16.50;46.31;102168.63;7261519;19;154256;-56
2023/04/08 01:04:15;;;;;;;;;;;;;;;16.51;46.10;102159.16;7251616;19;151969;-56
2023/04/08 01:06:45;;;;;;;;;;;;;;;16.51;46.46;102160.03;7252444;19;153523;-56
2023/04/08 01:09:12;;;;;;;;;;;;;;;16.49;46.47;102156.63;7257532;19;154134;-56
2023/04/08 01:11:41;;;;;;;;;;;;;;;16.49;46.51;102166.97;7256980;19;153572;-56
2023/04/08 01:14:10;;;;;;;;;;;;;;;16.51;46.41;102167.53;7253554;19;154638;-56
2023/04/08 01:16:39;;;;;;;;;;;;;;;16.51;46.25;102161.97;7250007;19;153608;-55
2023/04/08 01:19:09;;;;;;;;;;;;;;;16.49;46.51;102162.19;7251661;19;152673;-55
2023/04/08 01:21:36;;;;;;;;;;;;;;;16.46;46.15;102163.56;7255640;19;154392;-55
2023/04/08 01:24:06;;;;;;;;;;;;;;;16.44;46.26;102160.16;7260113;19;152708;-55
2023/04/08 01:26:34;;;;;;;;;;;;;;;16.48;46.24;102165.25;7252209;19;153884;-56
2023/04/08 01:29:01;;;;;;;;;;;;;;;16.48;46.46;102163.31;7253968;19;154257;-56
2023/04/08 01:31:29;;;;;;;;;;;;;;;16.45;46.65;102161.88;7252944;19;153191;-56
2023/04/08 01:33:56;;;;;;;;;;;;;;;16.46;46.10;102159.94;7252783;19;153083;-56
2023/04/08 01:36:25;;;;;;;;;;;;;;;16.44;46.59;102164.94;7251762;19;153602;-55
2023/04/08 01:38:52;;;;;;;;;;;;;;;16.47;46.50;102164.41;7254029;19;153491;-56
2023/04/08 01:41:20;;;;;;;;;;;;;;;16.46;46.49;102163.56;7254296;19;153557;-56
2023/04/08 01:43:47;;;;;;;;;;;;;;;16.46;46.65;102159.94;7250547;19;154368;-56
2023/04/08 01:46:14;;;;;;;;;;;;;;;16.45;46.37;102159.06;7257378;19;153948;-56
2023/04/08 01:48:42;;;;;;;;;;;;;;;16.41;46.63;102162.63;7253106;19;153902;-56
2023/04/08 01:51:10;;;;;;;;;;;;;;;16.43;46.66;102163.22;7253209;19;153948;-56
2023/04/08 01:53:37;;;;;;;;;;;;;;;16.44;46.33;102171.31;7254403;19;154106;-55
2023/04/08 01:56:05;;;;;;;;;;;;;;;16.41;46.74;102173.78;7244767;19;152105;-55
2023/04/08 01:58:37;;;;;;;;;;;;;;;16.42;46.73;102178.25;7252562;19;152062;-55
2023/04/08 02:01:09;;;;;;;;;;;;;;;16.41;46.62;102168.19;7252945;19;152758;-55
2023/04/08 02:03:36;;;;;;;;;;;;;;;16.42;46.28;102173.53;7252846;19;154226;-55
2023/04/08 02:06:04;;;;;;;;;;;;;;;16.37;46.65;102167.00;7247970;19;152896;-55
2023/04/08 02:08:32;;;;;;;;;;;;;;;16.40;46.43;102172.91;7260704;19;154351;-55
2023/04/08 02:10:59;;;;;;;;;;;;;;;16.39;46.55;102165.69;7256025;19;154017;-55
2023/04/08 02:13:26;;;;;;;;;;;;;;;16.39;46.50;102164.81;7256244;19;154447;-55
2023/04/08 02:15:56;;;;;;;;;;;;;;;16.39;46.45;102162.88;7250631;19;153670;-55
2023/04/08 02:18:26;;;;;;;;;;;;;;;16.37;46.54;102169.81;7251292;19;153172;-56
2023/04/08 02:20:57;;;;;;;;;;;;;;;16.36;46.58;102162.53;7253121;19;153866;-55
2023/04/08 02:23:28;;;;;;;;;;;;;;;16.37;46.41;102153.91;7252334;19;153512;-55
2023/04/08 02:25:55;;;;;;;;;;;;;;;16.39;46.61;102156.47;7248931;19;153400;-55
2023/04/08 02:28:22;;;;;;;;;;;;;;;16.40;46.76;102161.78;7253411;19;152353;-55
2023/04/08 02:30:50;;;;;;;;;;;;;;;16.37;46.43;102159.50;7258678;19;153971;-55
2023/04/08 02:33:19;;;;;;;;;;;;;;;16.35;46.74;102161.66;7252256;19;153322;-55
2023/04/08 02:35:47;;;;;;;;;;;;;;;16.35;46.57;102160.84;7249245;19;153089;-55
2023/04/08 02:38:14;;;;;;;;;;;;;;;16.35;46.70;102156.09;7253083;19;152950;-55
2023/04/08 02:40:41;;;;;;;;;;;;;;;16.34;46.62;102165.59;7252796;19;152990;-55
2023/04/08 02:43:08;;;;;;;;;;;;;;;16.37;46.80;102164.22;7255454;19;153153;-55
2023/04/08 02:45:37;;;;;;;;;;;;;;;16.32;46.52;102176.13;7249525;19;153091;-56
2023/04/08 02:48:05;;;;;;;;;;;;;;;16.32;46.92;102170.56;7249339;19;153536;-55
2023/04/08 02:50:32;;;;;;;;;;;;;;;16.33;46.89;102172.25;7253578;19;153457;-55
2023/04/08 02:52:59;;;;;;;;;;;;;;;16.35;46.72;102172.81;7262661;19;153496;-56
2023/04/08 02:55:25;;;;;;;;;;;;;;;16.34;46.84;102178.69;7250615;19;153230;-54
2023/04/08 02:57:52;;;;;;;;;;;;;;;16.34;46.45;102182.31;7250933;19;154140;-55
2023/04/08 03:00:19;;;;;;;;;;;;;;;16.36;46.58;102171.75;7261407;19;153580;-56
2023/04/08 03:02:46;;;;;;;;;;;;;;;16.32;46.58;102176.13;7257736;19;155259;-55
2023/04/08 03:05:15;;;;;;;;;;;;;;;16.31;46.98;102182.78;7256660;19;153052;-55
2023/04/08 03:07:42;;;;;;;;;;;;;;;16.31;46.99;102188.38;7252389;19;155390;-55
2023/04/08 03:10:08;;;;;;;;;;;;;;;16.31;46.72;102182.78;7258747;19;153745;-55
2023/04/08 03:12:35;;;;;;;;;;;;;;;16.32;46.86;102189.22;7267196;19;152976;-55
2023/04/08 03:15:02;;;;;;;;;;;;;;;16.28;46.77;102188.88;7257397;19;155182;-55
2023/04/08 03:17:32;;;;;;;;;;;;;;;16.28;46.81;102190.81;7258522;19;153516;-55
2023/04/08 03:20:00;;;;;;;;;;;;;;;16.29;46.85;102198.09;7259061;19;153412;-55
2023/04/08 03:22:27;;;;;;;;;;;;;;;16.30;46.70;102192.28;7258291;19;152523;-55
2023/04/08 03:24:53;;;;;;;;;;;;;;;16.27;46.88;102191.91;7257548;19;154641;-55
2023/04/08 03:27:20;;;;;;;;;;;;;;;16.29;46.85;102198.09;7255514;19;154284;-55
2023/04/08 03:29:47;;;;;;;;;;;;;;;16.27;47.08;102201.13;7257956;19;154189;-55
2023/04/08 03:32:14;;;;;;;;;;;;;;;16.25;47.09;102200.53;7258762;19;154047;-55
2023/04/08 03:34:41;;;;;;;;;;;;;;;16.26;46.89;102201.41;7263446;19;154437;-55
2023/04/08 03:37:08;;;;;;;;;;;;;;;16.27;46.99;102206.69;7257942;19;153224;-55
2023/04/08 03:39:35;;;;;;;;;;;;;;;16.25;47.09;102206.13;7261293;19;153313;-55
2023/04/08 03:42:02;;;;;;;;;;;;;;;16.28;47.01;102213.13;7259402;19;154623;-55
2023/04/08 03:44:29;;;;;;;;;;;;;;;16.26;46.85;102213.38;7256289;19;153138;-55
2023/04/08 03:46:58;;;;;;;;;;;;;;;16.25;46.83;102213.63;7255035;19;154011;-55
2023/04/08 03:49:25;;;;;;;;;;;;;;;16.27;47.24;102225.38;7255331;19;153552;-55
2023/04/08 03:51:52;;;;;;;;;;;;;;;16.28;46.95;102219.56;7259545;19;153023;-55
2023/04/08 03:54:19;;;;;;;;;;;;;;;16.27;47.05;102217.00;7258275;19;153649;-55
2023/04/08 03:56:48;;;;;;;;;;;;;;;16.24;46.83;102220.31;7259505;19;154203;-54
2023/04/08 03:59:17;;;;;;;;;;;;;;;16.25;47.27;102228.44;7253204;19;154494;-55
2023/04/08 04:01:45;;;;;;;;;;;;;;;16.23;47.14;102225.03;7255814;19;153061;-55
2023/04/08 04:04:12;;;;;;;;;;;;;;;16.26;47.10;102232.88;7256751;19;152482;-55
2023/04/08 04:06:39;;;;;;;;;;;;;;;16.24;47.13;102235.09;7252698;19;153166;-55
2023/04/08 04:09:06;;;;;;;;;;;;;;;16.26;46.91;102235.66;7256907;19;153423;-55
2023/04/08 04:11:34;;;;;;;;;;;;;;;16.23;46.97;102232.53;7258438;19;152775;-55
2023/04/08 04:14:01;;;;;;;;;;;;;;;16.22;47.35;102237.28;7259411;19;153941;-55
2023/04/08 04:16:29;;;;;;;;;;;;;;;16.24;47.04;102232.31;7256103;19;153227;-55
2023/04/08 04:18:58;;;;;;;;;;;;;;;16.23;46.92;102226.97;7265516;19;154340;-55
2023/04/08 04:21:26;;;;;;;;;;;;;;;16.25;47.12;102233.16;7257723;19;153902;-55
2023/04/08 04:23:52;;;;;;;;;;;;;;;16.23;47.10;102229.75;7258655;19;153248;-55
2023/04/08 04:26:19;;;;;;;;;;;;;;;16.24;47.19;102237.03;7253271;19;154369;-55
2023/04/08 04:28:46;;;;;;;;;;;;;;;16.25;46.94;102235.94;7250719;19;154686;-55
2023/04/08 04:31:17;;;;;;;;;;;;;;;16.24;46.98;102237.03;7256756;19;152976;-55
2023/04/08 04:33:44;;;;;;;;;;;;;;;16.20;47.08;102239.47;7255240;19;154237;-55
2023/04/08 04:36:11;;;;;;;;;;;;;;;16.23;47.08;102240.91;7253027;19;153064;-55
2023/04/08 04:38:38;;;;;;;;;;;;;;;16.20;47.10;102247.00;7257230;19;152324;-55
2023/04/08 04:41:05;;;;;;;;;;;;;;;16.19;46.95;102245.28;7263237;19;153856;-55
2023/04/08 04:43:31;;;;;;;;;;;;;;;16.20;47.30;102249.78;7255598;19;152592;-55
2023/04/08 04:45:59;;;;;;;;;;;;;;;16.19;47.49;102246.13;7251458;19;153075;-55
2023/04/08 04:48:28;;;;;;;;;;;;;;;16.21;47.06;102248.69;7252667;19;153952;-55
2023/04/08 04:50:56;;;;;;;;;;;;;;;16.22;47.21;102255.94;7257176;19;153266;-55
2023/04/08 04:53:23;;;;;;;;;;;;;;;16.18;47.31;102254.75;7255977;19;154289;-55
2023/04/08 04:55:50;;;;;;;;;;;;;;;16.17;47.24;102253.06;7252231;19;153498;-55
2023/04/08 04:58:18;;;;;;;;;;;;;;;16.19;47.30;102251.72;7252066;19;153068;-55
2023/04/08 05:00:45;;;;;;;;;;;;;;;16.21;47.23;102255.13;7250908;19;154898;-55
2023/04/08 05:03:12;;;;;;;;;;;;;;;16.21;47.28;102268.22;7261169;19;152039;-55
2023/04/08 05:05:40;;;;;;;;;;;;;;;16.18;47.48;102266.75;7252110;19;154647;-55
2023/04/08 05:08:07;;;;;;;;;;;;;;;16.23;47.33;102266.84;7252158;19;154362;-55
2023/04/08 05:10:34;;;;;;;;;;;;;;;16.19;47.11;102262.88;7257122;19;154393;-55
2023/04/08 05:13:01;;;;;;;;;;;;;;;16.16;47.11;102257.78;7257455;19;153085;-55
2023/04/08 05:15:28;;;;;;;;;;;;;;;16.17;47.41;102267.00;7252849;19;154333;-55
2023/04/08 05:17:55;;;;;;;;;;;;;;;16.20;47.13;102272.09;7250307;19;152439;-53
2023/04/08 05:20:21;;;;;;;;;;;;;;;16.19;46.98;102274.03;7252816;19;154187;-56
2023/04/08 05:22:51;;;;;;;;;;;;;;;16.20;47.35;102272.94;7260497;19;154403;-56
2023/04/08 05:25:17;;;;;;;;;;;;;;;16.17;47.50;102272.59;7252959;19;154012;-54
2023/04/08 05:27:45;;;;;;;;;;;;;;;16.17;47.44;102276.19;7252197;19;153683;-54
2023/04/08 05:30:14;;;;;;;;;;;;;;;16.19;47.19;102276.81;7254245;19;153878;-55
2023/04/08 05:32:41;;;;;;;;;;;;;;;16.19;47.13;102278.75;7252388;19;153234;-55
2023/04/08 05:35:09;;;;;;;;;;;;;;;16.20;47.23;102277.66;7250180;19;153676;-55
2023/04/08 05:37:35;;;;;;;;;;;;;;;16.17;47.45;102289.31;7252597;19;154058;-55
2023/04/08 05:40:03;;;;;;;;;;;;;;;16.15;47.21;102289.56;7256308;19;152993;-55
2023/04/08 05:42:31;;;;;;;;;;;;;;;16.15;47.42;102294.28;7254928;19;153541;-55
2023/04/08 05:44:57;;;;;;;;;;;;;;;16.15;47.34;102292.34;7259336;19;152377;-55
2023/04/08 05:47:24;;;;;;;;;;;;;;;16.14;47.44;102290.63;7246795;19;154707;-55
2023/04/08 05:49:51;;;;;;;;;;;;;;;16.15;47.38;102295.13;7252587;19;152646;-55
2023/04/08 05:52:18;;;;;;;;;;;;;;;16.12;47.40;102298.41;7256395;19;153118;-55
2023/04/08 05:54:46;;;;;;;;;;;;;;;16.13;47.43;102299.25;7250800;19;154315;-55
2023/04/08 05:57:13;;;;;;;;;;;;;;;16.12;47.53;102300.34;7252342;19;152523;-55
2023/04/08 05:59:39;;;;;;;;;;;;;;;16.14;47.39;102295.38;7252558;19;153644;-55
2023/04/08 06:02:06;;;;;;;;;;;;;;;16.14;47.10;102309.31;7252357;19;154191;-56
2023/04/08 06:04:34;;;;;;;;;;;;;;;16.13;47.28;102308.44;7251722;19;154333;-55
2023/04/08 06:07:03;;;;;;;;;;;;;;;16.14;47.58;102309.31;7257990;19;154223;-55
2023/04/08 06:09:33;;;;;;;;;;;;;;;16.14;47.28;102312.94;7256994;19;153057;-54
2023/04/08 06:12:00;;;;;;;;;;;;;;;16.15;47.30;102311.84;7255135;19;153722;-55
2023/04/08 06:14:27;;;;;;;;;;;;;;;16.14;47.33;102312.94;7251351;19;154058;-55
2023/04/08 06:16:55;;;;;;;;;;;;;;;16.13;47.46;102313.19;7249122;19;152468;-55
2023/04/08 06:19:23;;;;;;;;;;;;;;;16.14;47.39;102317.66;7251018;19;154348;-55
2023/04/08 06:21:50;;;;;;;;;;;;;;;16.13;47.47;102318.75;7252993;19;152869;-55
2023/04/08 06:24:17;;;;;;;;;;;;;;;16.14;47.13;102320.47;7251981;19;152482;-55
2023/04/08 06:26:44;;;;;;;;;;;;;;;16.13;47.13;102319.59;7250335;19;154458;-55
2023/04/08 06:29:11;;;;;;;;;;;;;;;16.13;47.27;102327.13;7260225;19;153149;-55
2023/04/08 06:31:38;;;;;;;;;;;;;;;16.11;47.63;102323.75;7253139;19;153706;-55
2023/04/08 06:34:07;;;;;;;;;;;;;;;16.13;47.31;102316.81;7249263;19;153537;-55
2023/04/08 06:36:34;;;;;;;;;;;;;;;16.12;47.28;102331.88;7251518;19;152753;-55
2023/04/08 06:39:01;;;;;;;;;;;;;;;16.12;47.20;102328.22;7253570;19;153922;-55
2023/04/08 06:41:28;;;;;;;;;;;;;;;16.11;47.50;102324.59;7252858;19;152781;-55
2023/04/08 06:43:55;;;;;;;;;;;;;;;16.11;47.63;102327.38;7251884;19;154780;-55
2023/04/08 06:46:22;;;;;;;;;;;;;;;16.12;47.39;102331.03;7249989;19;154592;-55
2023/04/08 06:48:49;;;;;;;;;;;;;;;16.10;47.49;102330.41;7251192;19;154087;-55
2023/04/08 06:51:17;;;;;;;;;;;;;;;16.12;47.16;102342.19;7259882;19;154233;-55
2023/04/08 06:53:44;;;;;;;;;;;;;;;16.10;47.20;102342.41;7250687;19;154210;-55
2023/04/08 06:56:13;;;;;;;;;;;;;;;16.14;47.25;102343.63;7249782;19;153422;-55
2023/04/08 06:58:40;;;;;;;;;;;;;;;16.10;47.54;102341.56;7253235;19;154208;-55
2023/04/08 07:01:07;;;;;;;;;;;;;;;16.09;47.35;102340.72;7245713;19;154675;-55
2023/04/08 07:03:34;;;;;;;;;;;;;;;16.10;47.65;102334.03;7248139;19;153700;-55
2023/04/08 07:06:02;;;;;;;;;;;;;;;16.10;47.63;102333.19;7248633;19;152575;-57
2023/04/08 07:08:28;;;;;;;;;;;;;;;16.10;47.26;102345.19;7250760;19;153538;-56
2023/04/08 07:10:55;;;;;;;;;;;;;;;16.11;47.25;102341.31;7260055;19;154735;-56
2023/04/08 07:13:22;;;;;;;;;;;;;;;16.12;47.17;102345.81;7250080;19;153785;-55
2023/04/08 07:15:49;;;;;;;;;;;;;;;16.12;47.33;102351.38;7249650;19;153564;-56
2023/04/08 07:18:16;;;;;;;;;;;;;;;16.10;47.41;102361.06;7249155;19;155461;-56
2023/04/08 07:20:43;;;;;;;;;;;;;;;16.09;47.34;102354.66;7249001;19;153246;-56
2023/04/08 07:23:10;;;;;;;;;;;;;;;16.09;47.18;102365.78;7250741;19;152979;-55
2023/04/08 07:25:37;;;;;;;;;;;;;;;16.10;47.49;102363.84;7249178;19;154498;-55
2023/04/08 07:28:04;;;;;;;;;;;;;;;16.12;47.31;102368.13;7246782;19;153713;-56
2023/04/08 07:30:31;;;;;;;;;;;;;;;16.10;47.42;102361.91;7252794;19;153991;-55
2023/04/08 07:32:58;;;;;;;;;;;;;;;16.10;47.67;102373.06;7256245;19;154179;-56
2023/04/08 07:35:30;;;;;;;;;;;;;;;16.12;47.46;102372.84;7248246;19;152136;-56
2023/04/08 07:37:57;;;;;;;;;;;;;;;16.11;47.24;102374.78;7248974;19;152134;-56
2023/04/08 07:40:24;;;;;;;;;;;;;;;16.10;47.51;102366.66;7249468;19;155667;-56
2023/04/08 07:42:53;;;;;;;;;;;;;;;16.13;47.39;102383.72;7255372;19;153124;-56
2023/04/08 07:45:22;;;;;;;;;;;;;;;16.10;47.25;102381.44;7254985;19;154128;-55
2023/04/08 07:47:49;;;;;;;;;;;;;;;16.12;47.37;102386.78;7250514;19;153595;-56
2023/04/08 07:50:16;;;;;;;;;;;;;;;16.07;47.73;102384.72;7257475;19;153093;-56
2023/04/08 07:52:43;;;;;;;;;;;;;;;16.11;47.56;102385.94;7259839;19;155640;-56
2023/04/08 07:55:10;;;;;;;;;;;;;;;16.12;47.42;102387.63;7261806;19;153833;-56
2023/04/08 07:57:37;;;;;;;;;;;;;;;16.12;47.40;102386.78;7258129;19;153889;-56
2023/04/08 08:00:06;;;;;;;;;;;;;;;16.12;47.69;102395.16;7256451;19;154693;-55
2023/04/08 08:02:35;;;;;;;;;;;;;;;16.12;47.64;102390.41;7250271;19;154781;-56
2023/04/08 08:05:02;;;;;;;;;;;;;;;16.11;47.31;102388.72;7255544;19;153755;-56
2023/04/08 08:07:29;;;;;;;;;;;;;;;16.11;47.28;102399.88;7253981;19;154424;-55
2023/04/08 08:09:56;;;;;;;;;;;;;;;16.10;47.39;102395.38;7259031;19;153311;-56
2023/04/08 08:12:23;;;;;;;;;;;;;;;16.11;47.54;102404.59;7259111;19;153735;-56
2023/04/08 08:14:51;;;;;;;;;;;;;;;16.15;47.23;102405.81;7256128;19;153166;-56
2023/04/08 08:17:18;;;;;;;;;;;;;;;16.12;47.30;102397.94;7262772;19;154574;-56
2023/04/08 08:19:45;;;;;;;;;;;;;;;16.12;47.50;102406.28;7255018;19;152500;-56
2023/04/08 08:22:15;;;;;;;;;;;;;;;16.11;47.44;102407.38;7257726;19;152401;-56
2023/04/08 08:24:42;;;;;;;;;;;;;;;16.11;47.56;102408.22;7255946;19;153691;-55
2023/04/08 08:27:10;;;;;;;;;;;;;;;16.11;47.54;102405.44;7253501;19;153966;-56
2023/04/08 08:29:37;;;;;;;;;;;;;;;16.10;47.35;102405.69;7256930;19;153441;-56
2023/04/08 08:32:04;;;;;;;;;;;;;;;16.13;47.54;102407.97;7256260;19;153595;-56
2023/04/08 08:34:31;;;;;;;;;;;;;;;16.12;47.72;102409.94;7252359;19;153765;-56
2023/04/08 08:36:58;;;;;;;;;;;;;;;16.13;47.28;102416.34;7255534;19;153529;-55
2023/04/08 08:39:25;;;;;;;;;;;;;;;16.12;47.71;102417.44;7265225;19;154289;-55
2023/04/08 08:41:52;;;;;;;;;;;;;;;16.15;47.51;102414.16;7257060;19;153126;-55
2023/04/08 08:44:19;;;;;;;;;;;;;;;16.14;47.20;102420.81;7257278;19;153448;-56
2023/04/08 08:46:47;;;;;;;;;;;;;;;16.14;47.53;102420.81;7255671;19;153550;-56
2023/04/08 08:49:14;;;;;;;;;;;;;;;16.15;47.50;102412.22;7256339;19;153648;-56
2023/04/08 08:51:42;;;;;;;;;;;;;;;16.14;47.34;102416.09;7258376;19;154673;-56
2023/04/08 08:54:09;;;;;;;;;;;;;;;16.17;47.56;102423.97;7254502;19;152657;-56
2023/04/08 08:56:36;;;;;;;;;;;;;;;16.15;47.60;102423.38;7254759;19;154299;-56
2023/04/08 08:59:03;;;;;;;;;;;;;;;16.15;47.52;102428.09;7258296;19;154265;-56
2023/04/08 09:01:31;;;;;;;;;;;;;;;16.15;47.59;102423.38;7265688;19;153230;-56
2023/04/08 09:04:01;;;;;;;;;;;;;;;16.21;47.34;102428.00;7250721;19;153782;-56
2023/04/08 09:06:29;;;;;;;;;;;;;;;16.19;47.58;102429.31;7253831;19;153936;-56
2023/04/08 09:08:56;;;;;;;;;;;;;;;16.20;47.33;102429.09;7254484;19;153836;-56
2023/04/08 09:11:25;;;;;;;;;;;;;;;16.20;47.26;102417.94;7254860;19;155763;-56
2023/04/08 09:13:52;;;;;;;;;;;;;;;16.22;47.17;102428.81;7254733;19;155296;-56
2023/04/08 09:16:19;;;;;;;;;;;;;;;16.23;47.28;102428.59;7251019;19;152396;-56
2023/04/08 09:18:47;;;;;;;;;;;;;;;16.25;47.47;102423.63;7253826;19;153780;-56
2023/04/08 09:21:16;;;;;;;;;;;;;;;16.23;47.46;102417.44;7260377;19;153776;-56
2023/04/08 09:23:44;;;;;;;;;;;;;;;16.26;47.09;102419.72;7256025;19;154506;-55
2023/04/08 09:26:11;;;;;;;;;;;;;;;16.23;47.04;102420.22;7251673;19;153369;-56
2023/04/08 09:28:39;;;;;;;;;;;;;;;16.26;47.40;102422.50;7253825;19;153729;-56
2023/04/08 09:31:09;;;;;;;;;;;;;;;16.25;47.04;102422.78;7252273;19;154574;-56
2023/04/08 09:33:36;;;;;;;;;;;;;;;16.26;47.05;102421.69;7251670;19;152998;-56
2023/04/08 09:36:04;;;;;;;;;;;;;;;16.31;47.02;102421.78;7252029;19;154144;-56
2023/04/08 09:38:33;;;;;;;;;;;;;;;16.29;47.39;102429.56;7255486;19;154326;-59
2023/04/08 09:41:05;;;;;;;;;;;;;;;16.29;46.93;102424.84;7254681;19;153110;-56
2023/04/08 09:43:37;;;;;;;;;;;;;;;16.28;47.10;102423.13;7262807;19;152303;-56
2023/04/08 09:46:06;;;;;;;;;;;;;;;16.32;46.85;102417.91;7248896;19;152228;-55
2023/04/08 09:48:38;;;;;;;;;;;;;;;16.33;46.97;102425.19;7251651;19;153804;-55
2023/04/08 09:51:05;;;;;;;;;;;;;;;16.34;46.94;102427.75;7253201;19;153329;-56
2023/04/08 09:53:35;;;;;;;;;;;;;;;16.36;47.29;102419.09;7252128;19;153882;-56
2023/04/08 09:56:06;;;;;;;;;;;;;;;16.38;47.26;102430.88;7252024;19;153642;-56
2023/04/08 09:58:37;;;;;;;;;;;;;;;16.37;47.28;102427.25;7253441;19;152100;-56
2023/04/08 10:01:06;;;;;;;;;;;;;;;16.40;47.00;102437.91;7250524;19;154122;-55
2023/04/08 10:03:37;;;;;;;;;;;;;;;16.39;46.79;102430.66;7249248;19;153893;-56
2023/04/08 10:06:07;;;;;;;;;;;;;;;16.41;47.05;102431.25;7251802;19;154924;-56
2023/04/08 10:08:34;;;;;;;;;;;;;;;16.42;46.84;102434.88;7252239;19;153309;-56
2023/04/08 10:11:01;;;;;;;;;;;;;;;16.46;46.71;102431.34;7255310;19;153796;-56
2023/04/08 10:13:28;;;;;;;;;;;;;;;16.46;47.03;102436.94;7251751;19;152582;-56
2023/04/08 10:15:59;;;;;;;;;;;;;;;16.49;47.10;102432.78;7250865;19;153348;-56
2023/04/08 10:18:29;;;;;;;;;;;;;;;16.48;46.80;102428.31;7252342;19;154537;-56
2023/04/08 10:20:56;;;;;;;;;;;;;;;16.49;47.02;102423.59;7251601;19;152475;-56
2023/04/08 10:23:43;;;;;;;;;;;;;;;16.49;46.77;102430.00;7254540;19;153449;-56
2023/04/08 10:26:29;;;;;;;;;;;;;;;16.50;46.78;102433.66;7251813;19;153533;-56
2023/04/08 10:29:16;;;;;;;;;;;;;;;16.50;46.69;102425.28;7258219;19;152763;-56
2023/04/08 10:31:45;;;;;;;;;;;;;;;16.55;46.83;102428.19;7253667;19;154140;-55
2023/04/08 10:34:16;;;;;;;;;;;;;;;16.55;46.72;102425.38;7248229;19;154138;-56
2023/04/08 10:36:44;;;;;;;;;;;;;;;16.57;46.77;102431.59;7251299;19;153416;-56
2023/04/08 10:39:12;;;;;;;;;;;;;;;16.59;46.73;102423.84;7253162;19;152443;-56
2023/04/08 10:41:42;;;;;;;;;;;;;;;16.57;46.74;102421.28;7252509;19;152925;-56
2023/04/08 10:44:12;;;;;;;;;;;;;;;16.61;46.35;102421.66;7251434;19;153588;-56
2023/04/08 10:46:39;;;;;;;;;;;;;;;16.62;46.61;102410.25;7248970;19;153274;-56
2023/04/08 10:49:07;;;;;;;;;;;;;;;16.64;46.46;102407.19;7250050;19;153203;-56
2023/04/08 10:51:37;;;;;;;;;;;;;;;16.65;46.28;102409.75;7260678;19;153430;-56
2023/04/08 10:54:06;;;;;;;;;;;;;;;16.64;46.58;102407.19;7250382;19;153767;-56
2023/04/08 10:56:34;;;;;;;;;;;;;;;16.61;46.62;102402.97;7247862;19;152361;-55
2023/04/08 10:59:02;;;;;;;;;;;;;;;16.63;46.45;102397.97;7253416;19;153310;-56
2023/04/08 11:01:37;;;;;;;;;;;;;;;16.61;46.61;102396.56;7251359;19;152902;-56
2023/04/08 11:04:07;;;;;;;;;;;;;;;16.62;46.43;102393.53;7249907;19;153175;-56
2023/04/08 11:06:36;;;;;;;;;;;;;;;16.63;46.61;102397.97;7247878;19;153603;-55
2023/04/08 11:09:03;;;;;;;;;;;;;;;16.61;46.66;102386.25;7248817;19;153335;-56
2023/04/08 11:11:30;;;;;;;;;;;;;;;16.66;46.25;102391.94;7251998;19;153353;-56
2023/04/08 11:13:57;;;;;;;;;;;;;;;16.63;46.70;102389.63;7257547;19;153346;-56
2023/04/08 11:16:26;;;;;;;;;;;;;;;16.64;46.61;102384.88;7247144;19;153971;-56
2023/04/08 11:18:54;;;;;;;;;;;;;;;16.65;46.44;102381.00;7257477;19;155331;-56
2023/04/08 11:21:22;;;;;;;;;;;;;;;16.65;46.65;102384.66;7258905;19;155011;-56
2023/04/08 11:23:50;;;;;;;;;;;;;;;16.65;46.63;102381.00;7258835;19;154672;-56
2023/04/08 11:26:18;;;;;;;;;;;;;;;16.67;46.24;102390.00;7256696;19;154012;-56
2023/04/08 11:28:48;;;;;;;;;;;;;;;16.66;46.67;102386.34;7255476;19;154397;-56
2023/04/08 11:31:15;;;;;;;;;;;;;;;16.68;46.24;102389.72;7258325;19;153674;-56
2023/04/08 11:33:45;;;;;;;;;;;;;;;16.69;46.31;102390.56;7265669;19;154420;-56
2023/04/08 11:36:12;;;;;;;;;;;;;;;16.69;46.39;102383.06;7255812;19;153165;-56
2023/04/08 11:38:40;;;;;;;;;;;;;;;16.68;46.52;102384.13;7255443;19;154167;-56
2023/04/08 11:41:08;;;;;;;;;;;;;;;16.71;46.45;102388.41;7259187;19;154122;-55
2023/04/08 11:43:35;;;;;;;;;;;;;;;16.74;46.21;102393.47;7258164;19;152263;-56
2023/04/08 11:46:10;;;;;;;;;;;;;;;16.75;46.33;102393.22;7254357;19;154593;-56
2023/04/08 11:48:37;;;;;;;;;;;;;;;16.81;46.13;102388.59;7255211;19;153343;-56
2023/04/08 11:51:08;;;;;;;;;;;;;;;16.80;46.16;102392.50;7259454;19;153181;-56
2023/04/08 11:53:36;;;;;;;;;;;;;;;16.84;46.04;102388.09;7256060;19;152992;-56
2023/04/08 11:56:06;;;;;;;;;;;;;;;16.82;46.38;102387.50;7258157;19;152662;-55
2023/04/08 11:58:36;;;;;;;;;;;;;;;16.82;46.12;102384.69;7255975;19;154064;-56
2023/04/08 12:01:03;;;;;;;;;;;;;;;16.84;46.41;102376.94;7254778;19;153847;-56
2023/04/08 12:03:30;;;;;;;;;;;;;;;16.82;45.95;102376.31;7257565;19;153197;-56
2023/04/08 12:05:58;;;;;;;;;;;;;;;16.78;46.39;102372.34;7249799;19;152938;-56
2023/04/08 12:08:25;;;;;;;;;;;;;;;16.79;46.48;102368.47;7253009;19;152384;-56
2023/04/08 12:10:52;;;;;;;;;;;;;;;16.80;46.31;102362.66;7258336;19;153832;-56
2023/04/08 12:13:19;;;;;;;;;;;;;;;16.84;46.28;102361.03;7258138;19;153860;-56
2023/04/08 12:15:50;;;;;;;;;;;;;;;16.88;46.16;102367.81;7252783;19;153496;-56
2023/04/08 12:18:17;;;;;;;;;;;;;;;16.87;46.23;102368.91;7264039;19;152251;-56
2023/04/08 12:20:44;;;;;;;;;;;;;;;16.86;46.20;102369.16;7257422;19;153962;-56
2023/04/08 12:23:11;;;;;;;;;;;;;;;16.86;46.12;102366.34;7258828;19;152909;-56
2023/04/08 12:25:38;;;;;;;;;;;;;;;16.82;46.36;102367.94;7255395;19;154128;-56
2023/04/08 12:28:05;;;;;;;;;;;;;;;16.81;46.13;102369.91;7253349;19;152423;-56
2023/04/08 12:30:32;;;;;;;;;;;;;;;16.82;46.12;102367.94;7253746;19;152842;-56